createdAt,value
2019-03-10T00:00:37.567Z,3.73
2019-03-10T00:03:10.275Z,9.10
2019-03-10T00:05:43.615Z,7.93
2019-03-10T00:08:15.342Z,6.43
2019-03-10T00:10:46.660Z,9.97
2019-03-10T00:13:18.678Z,4.77
2019-03-10T00:15:50.648Z,5.03
2019-03-10T00:18:22.401Z,3.87
2019-03-10T00:20:54.158Z,7.57
2019-03-10T00:23:25.606Z,2.63
2019-03-10T00:25:57.169Z,5.97
2019-03-10T00:28:30.901Z,4.03
2019-03-10T00:31:02.489Z,3.27
2019-03-10T00:33:34.397Z,4.67
2019-03-10T00:36:06.182Z,4.33
2019-03-10T00:39:34.575Z,3.43
2019-03-10T00:42:50.475Z,6.77
2019-03-10T00:46:02.525Z,9.33
2019-03-10T00:49:14.052Z,7.40
2019-03-10T00:52:05.633Z,13.27
2019-03-10T00:54:38.667Z,8.23
2019-03-10T00:57:10.456Z,7.33
2019-03-10T00:59:41.824Z,14.00
2019-03-10T01:02:13.122Z,8.23
2019-03-10T01:04:44.852Z,12.43
2019-03-10T01:07:16.256Z,10.23
2019-03-10T01:09:49.265Z,10.53
2019-03-10T01:12:20.720Z,11.67
2019-03-10T01:14:52.171Z,12.63
2019-03-10T01:17:26.557Z,10.70
2019-03-10T01:19:58.974Z,16.70
2019-03-10T01:22:32.469Z,13.30
2019-03-10T01:25:04.333Z,11.73
2019-03-10T01:27:36.591Z,10.07
2019-03-10T01:30:12.635Z,12.07
2019-03-10T01:33:36.021Z,15.00
2019-03-10T01:36:16.913Z,13.30
2019-03-10T01:38:48.963Z,16.90
2019-03-10T01:41:21.964Z,16.87
2019-03-10T01:43:54.134Z,19.87
2019-03-10T01:46:26.489Z,9.00
2019-03-10T01:48:59.216Z,14.67
2019-03-10T01:51:31.868Z,14.27
2019-03-10T01:54:03.390Z,11.60
2019-03-10T01:56:36.393Z,11.63
2019-03-10T01:59:07.685Z,15.70
2019-03-10T02:01:40.713Z,12.77
2019-03-10T02:04:13.519Z,13.90
2019-03-10T02:06:46.545Z,10.23
2019-03-10T02:09:19.585Z,13.70
2019-03-10T02:11:50.986Z,9.70
2019-03-10T02:14:22.411Z,12.13
2019-03-10T02:16:53.860Z,18.97
2019-03-10T02:19:25.850Z,15.53
2019-03-10T02:21:57.653Z,12.40
2019-03-10T02:24:30.006Z,13.13
2019-03-10T02:27:01.952Z,11.97
2019-03-10T02:29:33.694Z,11.23
2019-03-10T02:32:07.171Z,12.87
2019-03-10T02:34:38.755Z,14.43
2019-03-10T02:37:10.873Z,18.50
2019-03-10T02:39:43.413Z,20.43
2019-03-10T02:42:15.606Z,9.73
2019-03-10T02:44:47.341Z,21.63
2019-03-10T02:47:18.946Z,13.10
2019-03-10T02:49:50.528Z,14.50
2019-03-10T02:52:23.075Z,18.63
2019-03-10T02:54:54.609Z,12.47
2019-03-10T02:57:27.092Z,13.07
2019-03-10T02:59:59.250Z,14.97
2019-03-10T03:02:32.355Z,19.07
2019-03-10T03:05:04.537Z,13.13
2019-03-10T03:07:36.443Z,15.80
2019-03-10T03:10:10.747Z,11.43
2019-03-10T03:12:43.518Z,13.53
2019-03-10T03:15:15.811Z,10.73
2019-03-10T03:17:47.577Z,10.00
2019-03-10T03:20:20.511Z,11.27
2019-03-10T03:22:52.340Z,10.70
2019-03-10T03:25:26.096Z,10.03
2019-03-10T03:27:58.690Z,10.03
2019-03-10T03:30:30.220Z,6.80
2019-03-10T03:33:02.713Z,12.57
2019-03-10T03:35:59.883Z,11.73
2019-03-10T03:38:56.086Z,6.73
2019-03-10T03:41:29.021Z,6.10
2019-03-10T03:44:00.361Z,6.20
2019-03-10T03:46:31.656Z,15.73
2019-03-10T03:49:03.114Z,8.77
2019-03-10T03:51:34.619Z,11.93
2019-03-10T03:54:07.154Z,10.87
2019-03-10T03:56:38.516Z,12.40
2019-03-10T03:59:09.839Z,17.70
2019-03-10T04:01:53.575Z,15.70
2019-03-10T04:04:25.630Z,18.63
2019-03-10T04:06:57.974Z,12.33
2019-03-10T04:09:29.770Z,9.87
2019-03-10T04:12:01.150Z,15.50
2019-03-10T04:14:32.684Z,10.07
2019-03-10T04:17:03.979Z,24.53
2019-03-10T04:19:35.278Z,11.73
2019-03-10T04:22:06.676Z,16.83
2019-03-10T04:24:40.047Z,17.10
2019-03-10T04:27:12.542Z,16.90
2019-03-10T04:29:44.044Z,11.97
2019-03-10T04:32:15.367Z,11.33
2019-03-10T04:34:47.734Z,13.87
2019-03-10T04:37:19.595Z,19.17
2019-03-10T04:39:50.933Z,12.03
2019-03-10T04:42:22.397Z,19.53
2019-03-10T04:44:54.209Z,17.77
2019-03-10T04:47:26.099Z,19.57
2019-03-10T04:49:58.297Z,15.53
2019-03-10T04:52:29.683Z,13.53
2019-03-10T04:55:19.921Z,15.57
2019-03-10T04:58:16.682Z,20.40
2019-03-10T05:00:50.624Z,12.20
2019-03-10T05:03:24.329Z,11.43
2019-03-10T05:05:56.243Z,13.37
2019-03-10T05:08:27.685Z,16.47
2019-03-10T05:11:00.244Z,8.73
2019-03-10T05:13:32.264Z,12.97
2019-03-10T05:16:03.975Z,10.47
2019-03-10T05:18:35.901Z,9.57
2019-03-10T05:21:07.415Z,10.60
2019-03-10T05:23:42.002Z,11.23
2019-03-10T05:26:14.769Z,9.33
2019-03-10T05:28:47.282Z,5.87
2019-03-10T05:31:18.687Z,4.37
2019-03-10T05:33:51.530Z,10.07
2019-03-10T05:36:24.267Z,6.67
2019-03-10T05:38:55.690Z,7.90
2019-03-10T05:41:28.450Z,5.63
2019-03-10T05:44:00.301Z,9.80
2019-03-10T05:46:31.618Z,7.60
2019-03-10T05:49:03.284Z,6.57
2019-03-10T05:51:34.731Z,6.20
2019-03-10T05:54:06.774Z,8.67
2019-03-10T05:56:38.079Z,7.33
2019-03-10T05:59:09.907Z,6.93
2019-03-10T06:01:42.171Z,7.10
2019-03-10T06:04:13.951Z,6.37
2019-03-10T06:06:45.253Z,5.43
2019-03-10T06:09:16.685Z,3.07
2019-03-10T06:11:48.144Z,4.57
2019-03-10T06:14:21.333Z,4.57
2019-03-10T06:16:52.895Z,6.87
2019-03-10T06:19:25.078Z,4.33
2019-03-10T06:21:58.652Z,6.83
2019-03-10T06:24:30.548Z,5.83
2019-03-10T06:27:02.053Z,3.83
2019-03-10T06:29:33.947Z,3.40
2019-03-10T06:32:05.394Z,4.57
2019-03-10T06:34:36.762Z,3.20
2019-03-10T06:37:08.241Z,3.13
2019-03-10T06:39:40.001Z,2.97
2019-03-10T06:42:11.527Z,4.23
2019-03-10T06:44:43.020Z,1.77
2019-03-10T06:47:14.429Z,1.60
2019-03-10T06:49:46.134Z,2.40
2019-03-10T06:52:17.529Z,2.30
2019-03-10T06:54:48.906Z,3.70
2019-03-10T06:57:21.494Z,2.33
2019-03-10T06:59:53.034Z,4.20
2019-03-10T07:02:24.969Z,1.37
2019-03-10T07:04:56.301Z,3.07
2019-03-10T07:07:27.838Z,2.13
2019-03-10T07:10:01.089Z,3.37
2019-03-10T07:12:32.869Z,2.40
2019-03-10T07:15:05.160Z,2.50
2019-03-10T07:17:39.192Z,2.47
2019-03-10T07:20:12.912Z,2.50
2019-03-10T07:22:44.315Z,3.87
2019-03-10T07:25:15.809Z,3.23
2019-03-10T07:28:15.020Z,4.30
2019-03-10T07:31:00.710Z,5.93
2019-03-10T07:33:49.923Z,8.83
2019-03-10T07:36:46.721Z,9.40
2019-03-10T07:39:41.820Z,12.83
2019-03-10T07:42:32.315Z,11.87
2019-03-10T07:45:12.059Z,12.13
2019-03-10T07:48:00.952Z,14.37
2019-03-10T07:50:43.648Z,14.17
2019-03-10T07:53:32.807Z,21.10
2019-03-10T07:56:12.641Z,12.77
2019-03-10T07:59:01.555Z,10.27
2019-03-10T08:01:48.737Z,9.37
2019-03-10T08:04:31.235Z,11.03
2019-03-10T08:07:21.303Z,12.37
2019-03-10T08:10:12.102Z,5.90
2019-03-10T08:12:56.284Z,11.83
2019-03-10T08:15:50.257Z,9.23
2019-03-10T08:18:30.941Z,9.03
2019-03-10T08:21:19.946Z,6.63
2019-03-10T08:23:58.035Z,9.53
2019-03-10T08:26:41.648Z,7.63
2019-03-10T08:29:36.532Z,7.47
2019-03-10T08:32:33.126Z,6.80
2019-03-10T08:35:36.129Z,8.30
2019-03-10T08:38:24.635Z,9.50
2019-03-10T08:41:10.464Z,7.13
2019-03-10T08:43:54.115Z,12.70
2019-03-10T08:46:34.355Z,10.33
2019-03-10T08:49:27.723Z,7.17
2019-03-10T08:52:12.483Z,10.60
2019-03-10T08:55:07.294Z,11.33
2019-03-10T08:58:17.012Z,18.10
2019-03-10T09:01:01.427Z,10.73
2019-03-10T09:03:59.341Z,14.07
2019-03-10T09:06:40.860Z,15.17
2019-03-10T09:09:31.444Z,11.43
2019-03-10T09:12:10.498Z,14.13
2019-03-10T09:14:59.132Z,16.03
2019-03-10T09:18:00.674Z,13.73
2019-03-10T09:20:45.456Z,14.37
2019-03-10T09:23:35.813Z,11.60
2019-03-10T09:26:25.039Z,20.00
2019-03-10T09:29:13.951Z,13.13
2019-03-10T09:31:55.966Z,11.97
2019-03-10T09:35:05.518Z,18.97
2019-03-10T09:37:48.100Z,21.57
2019-03-10T09:40:45.957Z,13.67
2019-03-10T09:43:42.007Z,14.80
2019-03-10T09:46:39.337Z,19.33
2019-03-10T09:49:28.652Z,11.03
2019-03-10T09:52:11.995Z,21.67
2019-03-10T09:55:07.001Z,20.13
2019-03-10T09:57:54.423Z,14.90
2019-03-10T10:00:57.015Z,19.53
2019-03-10T10:03:37.353Z,18.93
2019-03-10T10:06:28.367Z,13.67
2019-03-10T10:09:26.433Z,22.23
2019-03-10T10:12:31.900Z,17.10
2019-03-10T10:15:22.907Z,17.27
2019-03-10T10:18:16.226Z,23.40
2019-03-10T10:21:15.664Z,20.93
2019-03-10T10:24:10.017Z,19.70
2019-03-10T10:27:01.299Z,23.27
2019-03-10T10:29:57.591Z,20.97
2019-03-10T10:32:35.505Z,21.50
2019-03-10T10:35:32.559Z,20.67
2019-03-10T10:38:21.591Z,24.20
2019-03-10T10:41:13.675Z,15.73
2019-03-10T10:44:10.119Z,13.90
2019-03-10T10:46:51.534Z,21.77
2019-03-10T10:49:42.234Z,20.93
2019-03-10T10:52:32.133Z,21.30
2019-03-10T10:55:24.450Z,17.43
2019-03-10T10:58:15.846Z,19.63
2019-03-10T11:00:54.563Z,18.57
2019-03-10T11:03:37.527Z,21.47
2019-03-10T11:06:41.386Z,15.37
2019-03-10T11:09:19.556Z,19.63
2019-03-10T11:11:59.054Z,17.57
2019-03-10T11:14:50.391Z,15.13
2019-03-10T11:17:29.219Z,15.57
2019-03-10T11:20:15.937Z,14.33
2019-03-10T11:23:17.936Z,15.47
2019-03-10T11:26:04.804Z,14.87
2019-03-10T11:29:04.641Z,14.77
2019-03-10T11:31:59.394Z,18.13
2019-03-10T11:34:52.291Z,15.97
2019-03-10T11:37:46.854Z,8.40
2019-03-10T11:40:38.819Z,12.33
2019-03-10T11:43:33.542Z,14.10
2019-03-10T11:46:25.910Z,20.57
2019-03-10T11:49:16.119Z,10.67
2019-03-10T11:51:57.921Z,14.07
2019-03-10T11:54:51.245Z,22.77
2019-03-10T11:57:48.438Z,16.40
2019-03-10T12:00:43.819Z,13.17
2019-03-10T12:03:34.879Z,14.60
2019-03-10T12:06:20.966Z,14.23
2019-03-10T12:09:10.070Z,17.47
2019-03-10T12:11:43.165Z,12.27
2019-03-10T12:14:16.010Z,10.83
2019-03-10T12:16:48.217Z,18.97
2019-03-10T12:19:20.030Z,8.23
2019-03-10T12:21:52.829Z,16.60
2019-03-10T12:24:24.345Z,12.50
2019-03-10T12:26:56.790Z,14.60
2019-03-10T12:29:29.821Z,11.50
2019-03-10T12:32:02.981Z,15.50
2019-03-10T12:34:36.002Z,10.37
2019-03-10T12:37:13.165Z,9.67
2019-03-10T12:39:46.377Z,10.93
2019-03-10T12:42:18.387Z,15.63
2019-03-10T12:44:49.921Z,14.83
2019-03-10T12:47:22.994Z,18.07
2019-03-10T12:49:54.883Z,16.70
2019-03-10T12:52:27.859Z,15.37
2019-03-10T12:55:00.965Z,15.43
2019-03-10T12:57:33.545Z,15.57
2019-03-10T13:00:07.314Z,15.13
2019-03-10T13:02:40.417Z,18.50
2019-03-10T13:05:13.343Z,11.73
2019-03-10T13:07:46.533Z,11.97
2019-03-10T13:10:19.778Z,13.37
2019-03-10T13:12:52.887Z,13.47
2019-03-10T13:15:24.322Z,16.23
2019-03-10T13:17:57.991Z,14.23
2019-03-10T13:20:30.929Z,13.73
2019-03-10T13:23:02.897Z,18.13
2019-03-10T13:25:35.027Z,16.77
2019-03-10T13:28:06.386Z,17.33
2019-03-10T13:30:39.906Z,14.57
2019-03-10T13:33:11.558Z,14.43
2019-03-10T13:35:44.561Z,17.37
2019-03-10T13:38:17.544Z,9.27
2019-03-10T13:40:50.549Z,10.90
2019-03-10T13:43:23.829Z,14.17
2019-03-10T13:45:56.914Z,11.80
2019-03-10T13:48:28.746Z,14.03
2019-03-10T13:51:01.799Z,17.27
2019-03-10T13:53:35.670Z,11.97
2019-03-10T13:56:08.952Z,11.73
2019-03-10T13:58:41.008Z,16.13
2019-03-10T14:01:12.582Z,18.17
2019-03-10T14:03:45.606Z,16.20
2019-03-10T14:06:17.458Z,9.33
2019-03-10T14:08:50.100Z,12.37
2019-03-10T14:11:22.428Z,15.83
2019-03-10T14:13:54.628Z,18.70
2019-03-10T14:16:27.284Z,23.57
2019-03-10T14:18:59.962Z,11.20
2019-03-10T14:21:33.775Z,15.67
2019-03-10T14:24:06.849Z,17.63
2019-03-10T14:26:39.501Z,19.13
2019-03-10T14:29:11.522Z,14.00
2019-03-10T14:31:44.446Z,14.63
2019-03-10T14:34:17.479Z,12.03
2019-03-10T14:36:49.999Z,12.30
2019-03-10T14:39:22.604Z,18.67
2019-03-10T14:41:54.201Z,13.33
2019-03-10T14:44:27.339Z,19.60
2019-03-10T14:46:59.955Z,18.40
2019-03-10T14:49:32.953Z,11.50
2019-03-10T14:52:05.707Z,20.80
2019-03-10T14:54:38.801Z,18.07
2019-03-10T14:57:11.522Z,14.77
2019-03-10T14:59:44.612Z,17.03
2019-03-10T15:02:17.625Z,18.73
2019-03-10T15:04:50.706Z,17.93
2019-03-10T15:07:23.771Z,11.67
2019-03-10T15:09:56.791Z,20.50
2019-03-10T15:12:29.127Z,20.67
2019-03-10T15:15:00.514Z,18.10
2019-03-10T15:17:32.076Z,19.23
2019-03-10T15:20:05.560Z,18.53
2019-03-10T15:22:38.702Z,19.40
2019-03-10T15:25:10.891Z,14.83
2019-03-10T15:27:44.989Z,14.50
2019-03-10T15:30:18.349Z,16.57
2019-03-10T15:32:50.030Z,13.80
2019-03-10T15:35:22.146Z,15.30
2019-03-10T15:37:55.181Z,17.37
2019-03-10T15:40:27.984Z,14.90
2019-03-10T15:42:59.875Z,14.00
2019-03-10T15:45:33.190Z,14.77
2019-03-10T15:48:06.201Z,12.93
2019-03-10T15:50:39.421Z,15.73
2019-03-10T15:53:12.289Z,25.83
2019-03-10T15:55:43.747Z,25.00
2019-03-10T15:58:15.729Z,19.07
2019-03-10T16:00:48.217Z,18.07
2019-03-10T16:03:20.568Z,16.50
2019-03-10T16:05:53.592Z,19.10
2019-03-10T16:08:24.900Z,17.47
2019-03-10T16:10:58.016Z,21.77
2019-03-10T16:13:30.930Z,23.90
2019-03-10T16:16:04.020Z,20.90
2019-03-10T16:18:37.136Z,18.87
2019-03-10T16:21:10.208Z,20.70
2019-03-10T16:23:44.225Z,19.97
2019-03-10T16:26:16.698Z,28.27
2019-03-10T16:28:49.690Z,27.60
2019-03-10T16:31:22.834Z,26.77
2019-03-10T16:33:54.912Z,20.13
2019-03-10T16:36:27.918Z,17.77
2019-03-10T16:39:01.899Z,19.37
2019-03-10T16:41:36.579Z,21.07
2019-03-10T16:44:08.613Z,24.67
2019-03-10T16:46:41.915Z,19.03
2019-03-10T16:49:13.448Z,33.30
2019-03-10T16:51:46.508Z,55.57
2019-03-10T16:54:19.438Z,43.93
2019-03-10T16:56:51.065Z,28.27
2019-03-10T16:59:23.104Z,23.20
2019-03-10T17:01:56.149Z,34.77
2019-03-10T17:04:27.877Z,30.97
2019-03-10T17:06:59.823Z,36.27
2019-03-10T17:09:33.172Z,27.63
2019-03-10T17:12:06.214Z,35.83
2019-03-10T17:14:37.729Z,31.53
2019-03-10T17:17:09.827Z,27.60
2019-03-10T17:19:43.074Z,28.87
2019-03-10T17:22:16.179Z,32.60
2019-03-10T17:24:48.999Z,36.90
2019-03-10T17:27:22.377Z,47.17
2019-03-10T17:29:54.648Z,58.10
2019-03-10T17:32:27.709Z,61.70
2019-03-10T17:34:59.164Z,47.90
2019-03-10T17:37:32.127Z,30.77
2019-03-10T17:40:03.788Z,38.33
2019-03-10T17:42:36.919Z,37.63
2019-03-10T17:45:10.997Z,31.13
2019-03-10T17:47:42.625Z,36.67
2019-03-10T17:50:15.482Z,62.93
2019-03-10T17:52:49.238Z,103.63
2019-03-10T17:55:20.965Z,96.47
2019-03-10T17:57:54.024Z,103.93
2019-03-10T18:00:28.196Z,82.93
2019-03-10T18:03:01.381Z,90.70
2019-03-10T18:05:34.003Z,76.57
2019-03-10T18:08:07.096Z,67.83
2019-03-10T18:10:38.523Z,65.40
2019-03-10T18:13:11.620Z,64.27
2019-03-10T18:15:43.279Z,61.43
2019-03-10T18:18:15.859Z,88.33
2019-03-10T18:20:48.998Z,92.43
2019-03-10T18:23:21.493Z,88.93
2019-03-10T18:25:53.068Z,103.10
2019-03-10T18:28:26.201Z,107.47
2019-03-10T18:30:59.343Z,125.00
2019-03-10T18:33:31.650Z,201.27
2019-03-10T18:36:05.306Z,194.57
2019-03-10T18:38:38.374Z,173.40
2019-03-10T18:41:10.250Z,146.40
2019-03-10T18:43:43.791Z,145.40
2019-03-10T18:46:16.834Z,114.10
2019-03-10T18:48:49.864Z,124.90
2019-03-10T18:51:21.399Z,112.57
2019-03-10T18:53:54.526Z,108.33
2019-03-10T18:56:27.521Z,120.47
2019-03-10T18:59:00.667Z,148.00
2019-03-10T19:01:32.506Z,115.43
2019-03-10T19:04:05.346Z,121.47
2019-03-10T19:06:38.420Z,121.17
2019-03-10T19:09:11.531Z,149.87
2019-03-10T19:11:44.578Z,141.30
2019-03-10T19:14:17.683Z,134.73
2019-03-10T19:16:49.873Z,133.67
2019-03-10T19:19:23.786Z,128.60
2019-03-10T19:21:56.114Z,112.50
2019-03-10T19:24:29.140Z,102.03
2019-03-10T19:27:02.442Z,96.13
2019-03-10T19:29:35.647Z,87.03
2019-03-10T19:32:10.376Z,90.70
2019-03-10T19:34:43.701Z,89.77
2019-03-10T19:37:15.358Z,84.80
2019-03-10T19:39:48.645Z,97.50
2019-03-10T19:42:22.747Z,98.13
2019-03-10T19:44:55.268Z,76.40
2019-03-10T19:47:27.656Z,80.80
2019-03-10T19:50:01.172Z,88.47
2019-03-10T19:52:34.591Z,97.43
2019-03-10T19:55:07.741Z,94.23
2019-03-10T19:57:41.405Z,80.03
2019-03-10T20:00:15.734Z,78.93
2019-03-10T20:02:49.010Z,93.10
2019-03-10T20:05:21.495Z,91.13
2019-03-10T20:07:52.898Z,80.97
2019-03-10T20:10:25.464Z,103.43
2019-03-10T20:12:58.701Z,77.23
2019-03-10T20:15:31.742Z,76.67
2019-03-10T20:18:04.815Z,73.53
2019-03-10T20:20:36.708Z,73.67
2019-03-10T20:23:08.266Z,74.37
2019-03-10T20:25:41.555Z,69.13
2019-03-10T20:28:13.010Z,65.77
2019-03-10T20:30:45.399Z,68.47
2019-03-10T20:33:17.225Z,57.33
2019-03-10T20:35:51.175Z,56.17
2019-03-10T20:38:23.596Z,61.00
2019-03-10T20:40:55.933Z,62.03
2019-03-10T20:43:29.680Z,66.13
2019-03-10T20:46:01.972Z,58.73
2019-03-10T20:48:36.077Z,53.93
2019-03-10T20:51:08.411Z,44.10
2019-03-10T20:53:41.914Z,45.83
2019-03-10T20:56:13.683Z,44.60
2019-03-10T20:58:47.719Z,38.53
2019-03-10T21:01:21.249Z,34.87
2019-03-10T21:03:54.260Z,34.73
2019-03-10T21:06:27.424Z,35.63
2019-03-10T21:08:58.974Z,35.77
2019-03-10T21:11:32.053Z,31.00
2019-03-10T21:14:04.982Z,34.20
2019-03-10T21:16:38.131Z,32.27
2019-03-10T21:19:11.983Z,32.10
2019-03-10T21:21:45.385Z,37.20
2019-03-10T21:24:17.032Z,38.83
2019-03-10T21:26:50.036Z,37.77
2019-03-10T21:29:23.144Z,37.93
2019-03-10T21:31:56.200Z,35.43
2019-03-10T21:34:29.250Z,36.20
2019-03-10T21:37:02.307Z,31.87
2019-03-10T21:39:34.886Z,32.53
2019-03-10T21:42:08.148Z,36.33
2019-03-10T21:44:41.184Z,28.83
2019-03-10T21:47:14.229Z,27.87
2019-03-10T21:49:47.298Z,22.73
2019-03-10T21:52:19.245Z,25.50
2019-03-10T21:54:51.100Z,28.47
2019-03-10T21:57:24.266Z,27.73
2019-03-10T21:59:58.025Z,31.13
2019-03-10T22:02:30.377Z,31.33
2019-03-10T22:05:03.356Z,32.40
2019-03-10T22:07:35.879Z,28.70
2019-03-10T22:10:09.760Z,40.80
2019-03-10T22:12:42.781Z,31.57
2019-03-10T22:15:15.783Z,33.43
2019-03-10T22:17:48.884Z,33.50
2019-03-10T22:20:21.634Z,27.97
2019-03-10T22:22:53.289Z,29.27
2019-03-10T22:25:24.730Z,33.23
2019-03-10T22:27:57.724Z,24.20
2019-03-10T22:30:29.412Z,31.97
2019-03-10T22:33:02.465Z,26.13
2019-03-10T22:35:35.450Z,25.43
2019-03-10T22:38:06.815Z,23.50
2019-03-10T22:40:39.779Z,21.23
2019-03-10T22:43:12.777Z,23.37
2019-03-10T22:45:45.762Z,23.40
2019-03-10T22:48:18.757Z,16.67
2019-03-10T22:50:51.784Z,25.67
2019-03-10T22:53:24.376Z,23.87
2019-03-10T22:55:57.392Z,19.13
2019-03-10T22:58:30.978Z,17.37
2019-03-10T23:01:03.092Z,15.50
2019-03-10T23:03:37.388Z,18.47
2019-03-10T23:06:10.403Z,19.97
2019-03-10T23:08:43.347Z,14.80
2019-03-10T23:11:16.349Z,15.37
2019-03-10T23:13:50.301Z,15.50
2019-03-10T23:16:23.595Z,15.47
2019-03-10T23:18:56.675Z,15.07
2019-03-10T23:21:30.411Z,11.17
2019-03-10T23:24:01.966Z,14.00
2019-03-10T23:26:34.931Z,13.27
2019-03-10T23:29:07.958Z,17.50
2019-03-10T23:31:39.986Z,14.57
2019-03-10T23:34:12.949Z,20.70
2019-03-10T23:36:45.961Z,22.30
2019-03-10T23:39:18.964Z,25.40
2019-03-10T23:41:52.035Z,13.47
2019-03-10T23:44:24.997Z,11.00
2019-03-10T23:46:57.983Z,11.90
2019-03-10T23:49:30.937Z,16.23
2019-03-10T23:52:04.019Z,11.97
2019-03-10T23:54:37.360Z,11.87
2019-03-10T23:57:09.084Z,14.23
2019-03-10T23:59:40.240Z,15.83
